sensor_id;sensor_type;location;lat;lon;timestamp;P1;durP1;ratioP1;P2;durP2;ratioP2
8279;SDS011;8335;42.646;23.380;2023-09-18T00:00:49;21.50;;;15.90;;
8279;SDS011;8335;42.646;23.380;2023-09-18T00:03:16;20.50;;;14.65;;
8279;SDS011;8335;42.646;23.380;2023-09-18T00:05:44;24.60;;;16.00;;
8279;SDS011;8335;42.646;23.380;2023-09-18T00:08:12;22.90;;;16.65;;
8279;SDS011;8335;42.646;23.380;2023-09-18T00:10:40;19.75;;;16.25;;
8279;SDS011;8335;42.646;23.380;2023-09-18T00:13:07;21.80;;;16.98;;
8279;SDS011;8335;42.646;23.380;2023-09-18T00:15:34;24.80;;;19.27;;
8279;SDS011;8335;42.646;23.380;2023-09-18T00:18:03;26.42;;;20.23;;
8279;SDS011;8335;42.646;23.380;2023-09-18T00:20:30;26.90;;;19.55;;
8279;SDS011;8335;42.646;23.380;2023-09-18T00:22:57;26.13;;;21.85;;
8279;SDS011;8335;42.646;23.380;2023-09-18T00:25:24;25.67;;;21.63;;
8279;SDS011;8335;42.646;23.380;2023-09-18T00:27:51;26.80;;;22.27;;
8279;SDS011;8335;42.646;23.380;2023-09-18T00:30:18;25.98;;;21.80;;
8279;SDS011;8335;42.646;23.380;2023-09-18T00:32:44;29.83;;;22.45;;
8279;SDS011;8335;42.646;23.380;2023-09-18T00:35:13;27.50;;;23.08;;
8279;SDS011;8335;42.646;23.380;2023-09-18T00:37:40;29.70;;;24.95;;
8279;SDS011;8335;42.646;23.380;2023-09-18T00:40:08;30.40;;;23.25;;
8279;SDS011;8335;42.646;23.380;2023-09-18T00:42:36;31.65;;;23.20;;
8279;SDS011;8335;42.646;23.380;2023-09-18T00:45:03;30.30;;;25.20;;
8279;SDS011;8335;42.646;23.380;2023-09-18T00:47:31;30.80;;;25.65;;
8279;SDS011;8335;42.646;23.380;2023-09-18T00:49:58;29.35;;;25.48;;
8279;SDS011;8335;42.646;23.380;2023-09-18T00:52:27;31.45;;;24.70;;
8279;SDS011;8335;42.646;23.380;2023-09-18T00:54:54;28.50;;;23.97;;
8279;SDS011;8335;42.646;23.380;2023-09-18T00:57:21;27.63;;;23.73;;
8279;SDS011;8335;42.646;23.380;2023-09-18T00:59:47;30.95;;;23.48;;
8279;SDS011;8335;42.646;23.380;2023-09-18T01:02:14;31.08;;;24.15;;
8279;SDS011;8335;42.646;23.380;2023-09-18T01:04:41;26.25;;;22.50;;
8279;SDS011;8335;42.646;23.380;2023-09-18T01:07:09;26.50;;;22.13;;
8279;SDS011;8335;42.646;23.380;2023-09-18T01:09:37;27.15;;;22.52;;
8279;SDS011;8335;42.646;23.380;2023-09-18T01:12:05;29.10;;;22.88;;
8279;SDS011;8335;42.646;23.380;2023-09-18T01:14:39;29.23;;;22.80;;
8279;SDS011;8335;42.646;23.380;2023-09-18T01:17:10;25.83;;;20.95;;
8279;SDS011;8335;42.646;23.380;2023-09-18T01:19:39;25.05;;;20.10;;
8279;SDS011;8335;42.646;23.380;2023-09-18T01:22:09;24.27;;;19.65;;
8279;SDS011;8335;42.646;23.380;2023-09-18T01:24:39;25.85;;;18.52;;
8279;SDS011;8335;42.646;23.380;2023-09-18T01:27:07;25.48;;;17.70;;
8279;SDS011;8335;42.646;23.380;2023-09-18T01:29:35;19.98;;;16.90;;
8279;SDS011;8335;42.646;23.380;2023-09-18T01:32:01;20.75;;;17.48;;
8279;SDS011;8335;42.646;23.380;2023-09-18T01:34:30;19.70;;;16.55;;
8279;SDS011;8335;42.646;23.380;2023-09-18T01:37:01;22.17;;;16.60;;
8279;SDS011;8335;42.646;23.380;2023-09-18T01:39:29;24.77;;;17.15;;
8279;SDS011;8335;42.646;23.380;2023-09-18T01:42:00;25.20;;;16.45;;
8279;SDS011;8335;42.646;23.380;2023-09-18T01:44:29;17.88;;;16.00;;
8279;SDS011;8335;42.646;23.380;2023-09-18T01:46:57;23.77;;;16.63;;
8279;SDS011;8335;42.646;23.380;2023-09-18T01:49:28;18.75;;;16.55;;
8279;SDS011;8335;42.646;23.380;2023-09-18T01:51:56;21.30;;;17.20;;
8279;SDS011;8335;42.646;23.380;2023-09-18T01:54:23;20.67;;;17.42;;
8279;SDS011;8335;42.646;23.380;2023-09-18T01:56:50;22.25;;;18.50;;
8279;SDS011;8335;42.646;23.380;2023-09-18T01:59:19;23.88;;;18.98;;
8279;SDS011;8335;42.646;23.380;2023-09-18T02:01:47;23.50;;;18.33;;
8279;SDS011;8335;42.646;23.380;2023-09-18T02:04:14;25.35;;;18.23;;
8279;SDS011;8335;42.646;23.380;2023-09-18T02:06:41;21.63;;;16.52;;
8279;SDS011;8335;42.646;23.380;2023-09-18T02:09:07;19.52;;;16.70;;
8279;SDS011;8335;42.646;23.380;2023-09-18T02:11:35;24.83;;;17.25;;
8279;SDS011;8335;42.646;23.380;2023-09-18T02:14:03;21.67;;;16.77;;
8279;SDS011;8335;42.646;23.380;2023-09-18T02:16:32;22.20;;;17.98;;
8279;SDS011;8335;42.646;23.380;2023-09-18T02:18:59;22.15;;;16.75;;
8279;SDS011;8335;42.646;23.380;2023-09-18T02:21:26;22.33;;;17.25;;
8279;SDS011;8335;42.646;23.380;2023-09-18T02:23:53;19.50;;;16.52;;
8279;SDS011;8335;42.646;23.380;2023-09-18T02:26:20;21.00;;;16.33;;
8279;SDS011;8335;42.646;23.380;2023-09-18T02:28:47;22.05;;;17.38;;
8279;SDS011;8335;42.646;23.380;2023-09-18T02:31:14;21.17;;;17.77;;
8279;SDS011;8335;42.646;23.380;2023-09-18T02:33:43;22.23;;;17.55;;
8279;SDS011;8335;42.646;23.380;2023-09-18T02:36:09;18.13;;;15.63;;
8279;SDS011;8335;42.646;23.380;2023-09-18T02:38:36;17.75;;;15.88;;
8279;SDS011;8335;42.646;23.380;2023-09-18T02:41:03;20.90;;;15.70;;
8279;SDS011;8335;42.646;23.380;2023-09-18T02:43:30;20.42;;;15.57;;
8279;SDS011;8335;42.646;23.380;2023-09-18T02:45:57;18.80;;;16.30;;
8279;SDS011;8335;42.646;23.380;2023-09-18T02:48:24;18.58;;;15.27;;
8279;SDS011;8335;42.646;23.380;2023-09-18T02:50:52;17.67;;;15.18;;
8279;SDS011;8335;42.646;23.380;2023-09-18T02:53:19;23.25;;;16.13;;
8279;SDS011;8335;42.646;23.380;2023-09-18T02:55:49;19.83;;;16.17;;
8279;SDS011;8335;42.646;23.380;2023-09-18T02:58:17;19.90;;;15.20;;
8279;SDS011;8335;42.646;23.380;2023-09-18T03:00:44;17.00;;;14.90;;
8279;SDS011;8335;42.646;23.380;2023-09-18T03:03:12;20.60;;;16.13;;
8279;SDS011;8335;42.646;23.380;2023-09-18T03:05:40;19.42;;;15.93;;
8279;SDS011;8335;42.646;23.380;2023-09-18T03:08:09;20.25;;;16.58;;
8279;SDS011;8335;42.646;23.380;2023-09-18T03:10:36;20.65;;;16.75;;
8279;SDS011;8335;42.646;23.380;2023-09-18T03:13:06;24.17;;;16.50;;
8279;SDS011;8335;42.646;23.380;2023-09-18T03:15:33;24.40;;;17.42;;
8279;SDS011;8335;42.646;23.380;2023-09-18T03:18:02;20.90;;;16.47;;
8279;SDS011;8335;42.646;23.380;2023-09-18T03:20:30;22.03;;;17.47;;
8279;SDS011;8335;42.646;23.380;2023-09-18T03:22:58;24.27;;;19.27;;
8279;SDS011;8335;42.646;23.380;2023-09-18T03:25:27;21.80;;;17.00;;
8279;SDS011;8335;42.646;23.380;2023-09-18T03:27:54;22.57;;;17.53;;
8279;SDS011;8335;42.646;23.380;2023-09-18T03:30:22;21.53;;;17.60;;
8279;SDS011;8335;42.646;23.380;2023-09-18T03:32:50;25.83;;;19.27;;
8279;SDS011;8335;42.646;23.380;2023-09-18T03:35:17;33.60;;;19.70;;
8279;SDS011;8335;42.646;23.380;2023-09-18T03:37:44;23.25;;;19.20;;
8279;SDS011;8335;42.646;23.380;2023-09-18T03:40:11;23.55;;;19.35;;
8279;SDS011;8335;42.646;23.380;2023-09-18T03:42:40;23.23;;;19.30;;
8279;SDS011;8335;42.646;23.380;2023-09-18T03:45:08;21.63;;;18.33;;
8279;SDS011;8335;42.646;23.380;2023-09-18T03:47:35;30.43;;;19.70;;
8279;SDS011;8335;42.646;23.380;2023-09-18T03:50:04;26.73;;;20.33;;
8279;SDS011;8335;42.646;23.380;2023-09-18T03:52:32;24.97;;;19.70;;
8279;SDS011;8335;42.646;23.380;2023-09-18T03:54:58;26.60;;;20.93;;
8279;SDS011;8335;42.646;23.380;2023-09-18T03:57:25;26.37;;;20.20;;
8279;SDS011;8335;42.646;23.380;2023-09-18T03:59:53;26.80;;;19.17;;
8279;SDS011;8335;42.646;23.380;2023-09-18T04:02:21;27.07;;;18.57;;
8279;SDS011;8335;42.646;23.380;2023-09-18T04:04:48;26.10;;;20.03;;
8279;SDS011;8335;42.646;23.380;2023-09-18T04:07:15;24.80;;;20.30;;
8279;SDS011;8335;42.646;23.380;2023-09-18T04:09:43;27.37;;;20.07;;
8279;SDS011;8335;42.646;23.380;2023-09-18T04:12:10;26.37;;;19.80;;
8279;SDS011;8335;42.646;23.380;2023-09-18T04:14:38;26.60;;;20.03;;
8279;SDS011;8335;42.646;23.380;2023-09-18T04:17:06;26.83;;;20.63;;
8279;SDS011;8335;42.646;23.380;2023-09-18T04:19:33;27.37;;;20.53;;
8279;SDS011;8335;42.646;23.380;2023-09-18T04:22:00;28.83;;;20.30;;
8279;SDS011;8335;42.646;23.380;2023-09-18T04:24:26;27.50;;;20.70;;
8279;SDS011;8335;42.646;23.380;2023-09-18T04:26:53;26.70;;;21.37;;
8279;SDS011;8335;42.646;23.380;2023-09-18T04:29:20;27.77;;;21.83;;
8279;SDS011;8335;42.646;23.380;2023-09-18T04:31:46;34.63;;;23.17;;
8279;SDS011;8335;42.646;23.380;2023-09-18T04:34:15;36.03;;;23.43;;
8279;SDS011;8335;42.646;23.380;2023-09-18T04:36:42;29.63;;;22.23;;
8279;SDS011;8335;42.646;23.380;2023-09-18T04:39:10;31.80;;;22.63;;
8279;SDS011;8335;42.646;23.380;2023-09-18T04:41:36;34.17;;;22.17;;
8279;SDS011;8335;42.646;23.380;2023-09-18T04:44:04;29.33;;;21.87;;
8279;SDS011;8335;42.646;23.380;2023-09-18T04:46:33;27.55;;;19.98;;
8279;SDS011;8335;42.646;23.380;2023-09-18T04:49:01;31.02;;;19.92;;
8279;SDS011;8335;42.646;23.380;2023-09-18T04:51:31;27.85;;;19.52;;
8279;SDS011;8335;42.646;23.380;2023-09-18T04:53:58;24.02;;;18.63;;
8279;SDS011;8335;42.646;23.380;2023-09-18T04:56:25;18.92;;;16.38;;
8279;SDS011;8335;42.646;23.380;2023-09-18T04:58:52;26.08;;;18.33;;
8279;SDS011;8335;42.646;23.380;2023-09-18T05:01:19;24.40;;;17.27;;
8279;SDS011;8335;42.646;23.380;2023-09-18T05:03:46;24.55;;;17.45;;
8279;SDS011;8335;42.646;23.380;2023-09-18T05:06:14;30.38;;;18.35;;
8279;SDS011;8335;42.646;23.380;2023-09-18T05:08:43;27.23;;;17.75;;
8279;SDS011;8335;42.646;23.380;2023-09-18T05:11:10;25.15;;;18.42;;
8279;SDS011;8335;42.646;23.380;2023-09-18T05:13:37;27.75;;;18.75;;
8279;SDS011;8335;42.646;23.380;2023-09-18T05:16:04;27.52;;;18.65;;
8279;SDS011;8335;42.646;23.380;2023-09-18T05:18:31;23.63;;;17.73;;
8279;SDS011;8335;42.646;23.380;2023-09-18T05:20:57;30.77;;;20.02;;
8279;SDS011;8335;42.646;23.380;2023-09-18T05:23:24;31.08;;;20.27;;
8279;SDS011;8335;42.646;23.380;2023-09-18T05:25:53;33.78;;;22.92;;
8279;SDS011;8335;42.646;23.380;2023-09-18T05:28:20;29.35;;;20.77;;
8279;SDS011;8335;42.646;23.380;2023-09-18T05:30:47;27.20;;;19.10;;
8279;SDS011;8335;42.646;23.380;2023-09-18T05:33:14;29.52;;;21.13;;
8279;SDS011;8335;42.646;23.380;2023-09-18T05:35:41;29.65;;;20.48;;
8279;SDS011;8335;42.646;23.380;2023-09-18T05:38:09;28.58;;;19.75;;
8279;SDS011;8335;42.646;23.380;2023-09-18T05:40:38;28.30;;;19.58;;
8279;SDS011;8335;42.646;23.380;2023-09-18T05:43:06;26.60;;;19.00;;
8279;SDS011;8335;42.646;23.380;2023-09-18T05:45:33;25.58;;;18.30;;
8279;SDS011;8335;42.646;23.380;2023-09-18T05:48:00;26.42;;;19.75;;
8279;SDS011;8335;42.646;23.380;2023-09-18T05:50:29;40.50;;;26.90;;
8279;SDS011;8335;42.646;23.380;2023-09-18T05:52:56;25.83;;;19.30;;
8279;SDS011;8335;42.646;23.380;2023-09-18T05:55:24;25.20;;;17.90;;
8279;SDS011;8335;42.646;23.380;2023-09-18T05:57:51;28.40;;;18.92;;
8279;SDS011;8335;42.646;23.380;2023-09-18T06:00:19;33.22;;;19.95;;
8279;SDS011;8335;42.646;23.380;2023-09-18T06:02:47;29.67;;;18.33;;
8279;SDS011;8335;42.646;23.380;2023-09-18T06:05:16;24.83;;;18.30;;
8279;SDS011;8335;42.646;23.380;2023-09-18T06:07:46;24.73;;;16.10;;
8279;SDS011;8335;42.646;23.380;2023-09-18T06:10:13;18.73;;;15.00;;
8279;SDS011;8335;42.646;23.380;2023-09-18T06:12:40;17.83;;;13.10;;
8279;SDS011;8335;42.646;23.380;2023-09-18T06:15:08;17.77;;;12.70;;
8279;SDS011;8335;42.646;23.380;2023-09-18T06:17:38;14.13;;;12.02;;
8279;SDS011;8335;42.646;23.380;2023-09-18T06:20:06;27.40;;;18.75;;
8279;SDS011;8335;42.646;23.380;2023-09-18T06:22:35;17.35;;;12.60;;
8279;SDS011;8335;42.646;23.380;2023-09-18T06:25:03;15.95;;;11.55;;
8279;SDS011;8335;42.646;23.380;2023-09-18T06:27:30;21.00;;;12.18;;
8279;SDS011;8335;42.646;23.380;2023-09-18T06:29:59;19.25;;;11.80;;
8279;SDS011;8335;42.646;23.380;2023-09-18T06:32:26;17.10;;;11.50;;
8279;SDS011;8335;42.646;23.380;2023-09-18T06:34:54;13.52;;;11.10;;
8279;SDS011;8335;42.646;23.380;2023-09-18T06:37:22;16.23;;;11.77;;
8279;SDS011;8335;42.646;23.380;2023-09-18T06:39:49;16.13;;;11.13;;
8279;SDS011;8335;42.646;23.380;2023-09-18T06:42:16;12.93;;;11.13;;
8279;SDS011;8335;42.646;23.380;2023-09-18T06:44:43;21.65;;;16.40;;
8279;SDS011;8335;42.646;23.380;2023-09-18T06:47:10;18.45;;;13.63;;
8279;SDS011;8335;42.646;23.380;2023-09-18T06:49:37;15.10;;;11.30;;
8279;SDS011;8335;42.646;23.380;2023-09-18T06:52:05;13.65;;;10.90;;
8279;SDS011;8335;42.646;23.380;2023-09-18T06:54:32;14.57;;;11.10;;
8279;SDS011;8335;42.646;23.380;2023-09-18T06:56:58;12.95;;;11.13;;
8279;SDS011;8335;42.646;23.380;2023-09-18T06:59:25;12.13;;;10.85;;
8279;SDS011;8335;42.646;23.380;2023-09-18T07:01:52;13.07;;;11.68;;
8279;SDS011;8335;42.646;23.380;2023-09-18T07:04:19;14.65;;;11.07;;
8279;SDS011;8335;42.646;23.380;2023-09-18T07:06:45;17.75;;;13.38;;
8279;SDS011;8335;42.646;23.380;2023-09-18T07:09:14;13.50;;;11.70;;
8279;SDS011;8335;42.646;23.380;2023-09-18T07:11:40;18.60;;;14.20;;
8279;SDS011;8335;42.646;23.380;2023-09-18T07:14:07;12.10;;;10.90;;
8279;SDS011;8335;42.646;23.380;2023-09-18T07:16:34;14.50;;;10.52;;
8279;SDS011;8335;42.646;23.380;2023-09-18T07:19:01;16.52;;;11.30;;
8279;SDS011;8335;42.646;23.380;2023-09-18T07:21:29;12.95;;;10.73;;
8279;SDS011;8335;42.646;23.380;2023-09-18T07:23:56;14.50;;;11.52;;
8279;SDS011;8335;42.646;23.380;2023-09-18T07:26:24;12.82;;;11.50;;
8279;SDS011;8335;42.646;23.380;2023-09-18T07:28:51;13.43;;;11.65;;
8279;SDS011;8335;42.646;23.380;2023-09-18T07:31:17;14.20;;;10.80;;
8279;SDS011;8335;42.646;23.380;2023-09-18T07:33:44;15.63;;;11.57;;
8279;SDS011;8335;42.646;23.380;2023-09-18T07:36:11;22.90;;;18.25;;
8279;SDS011;8335;42.646;23.380;2023-09-18T07:38:40;16.45;;;13.57;;
8279;SDS011;8335;42.646;23.380;2023-09-18T07:41:08;14.02;;;11.40;;
8279;SDS011;8335;42.646;23.380;2023-09-18T07:43:36;12.32;;;10.70;;
8279;SDS011;8335;42.646;23.380;2023-09-18T07:46:04;15.13;;;10.55;;
8279;SDS011;8335;42.646;23.380;2023-09-18T07:48:31;13.38;;;10.50;;
8279;SDS011;8335;42.646;23.380;2023-09-18T07:50:57;12.77;;;11.30;;
8279;SDS011;8335;42.646;23.380;2023-09-18T07:53:24;14.50;;;12.98;;
8279;SDS011;8335;42.646;23.380;2023-09-18T07:55:55;15.02;;;13.32;;
8279;SDS011;8335;42.646;23.380;2023-09-18T07:58:23;12.48;;;10.50;;
8279;SDS011;8335;42.646;23.380;2023-09-18T08:00:54;13.35;;;10.57;;
8279;SDS011;8335;42.646;23.380;2023-09-18T08:03:22;17.65;;;10.85;;
8279;SDS011;8335;42.646;23.380;2023-09-18T08:05:49;12.68;;;10.48;;
8279;SDS011;8335;42.646;23.380;2023-09-18T08:08:17;17.35;;;10.80;;
8279;SDS011;8335;42.646;23.380;2023-09-18T08:10:45;12.80;;;11.00;;
8279;SDS011;8335;42.646;23.380;2023-09-18T08:13:12;12.27;;;10.27;;
8279;SDS011;8335;42.646;23.380;2023-09-18T08:15:39;12.30;;;10.35;;
8279;SDS011;8335;42.646;23.380;2023-09-18T08:18:07;12.30;;;10.50;;
8279;SDS011;8335;42.646;23.380;2023-09-18T08:20:34;16.90;;;10.88;;
8279;SDS011;8335;42.646;23.380;2023-09-18T08:23:02;12.88;;;10.45;;
8279;SDS011;8335;42.646;23.380;2023-09-18T08:25:30;13.93;;;11.25;;
8279;SDS011;8335;42.646;23.380;2023-09-18T08:27:57;13.05;;;11.20;;
8279;SDS011;8335;42.646;23.380;2023-09-18T08:30:24;14.43;;;10.48;;
8279;SDS011;8335;42.646;23.380;2023-09-18T08:32:50;10.82;;;9.73;;
8279;SDS011;8335;42.646;23.380;2023-09-18T08:35:19;12.07;;;10.30;;
8279;SDS011;8335;42.646;23.380;2023-09-18T08:37:47;17.35;;;13.23;;
8279;SDS011;8335;42.646;23.380;2023-09-18T08:40:13;16.45;;;12.07;;
8279;SDS011;8335;42.646;23.380;2023-09-18T08:42:44;17.55;;;14.25;;
8279;SDS011;8335;42.646;23.380;2023-09-18T08:45:14;16.63;;;10.48;;
8279;SDS011;8335;42.646;23.380;2023-09-18T08:47:49;13.10;;;9.65;;
8279;SDS011;8335;42.646;23.380;2023-09-18T08:50:19;14.60;;;10.57;;
8279;SDS011;8335;42.646;23.380;2023-09-18T08:52:47;12.50;;;10.35;;
8279;SDS011;8335;42.646;23.380;2023-09-18T08:55:15;14.85;;;10.13;;
8279;SDS011;8335;42.646;23.380;2023-09-18T08:57:43;12.80;;;11.52;;
8279;SDS011;8335;42.646;23.380;2023-09-18T09:00:12;12.90;;;10.43;;
8279;SDS011;8335;42.646;23.380;2023-09-18T09:02:42;14.52;;;10.20;;
8279;SDS011;8335;42.646;23.380;2023-09-18T09:05:09;11.63;;;8.52;;
8279;SDS011;8335;42.646;23.380;2023-09-18T09:07:37;15.82;;;11.02;;
8279;SDS011;8335;42.646;23.380;2023-09-18T09:10:04;13.98;;;10.82;;
8279;SDS011;8335;42.646;23.380;2023-09-18T09:12:47;14.95;;;10.20;;
8279;SDS011;8335;42.646;23.380;2023-09-18T09:15:15;16.50;;;9.93;;
8279;SDS011;8335;42.646;23.380;2023-09-18T09:17:42;14.60;;;11.60;;
8279;SDS011;8335;42.646;23.380;2023-09-18T09:20:10;16.42;;;12.18;;
8279;SDS011;8335;42.646;23.380;2023-09-18T09:22:38;12.93;;;11.45;;
8279;SDS011;8335;42.646;23.380;2023-09-18T09:25:21;14.35;;;9.32;;
8279;SDS011;8335;42.646;23.380;2023-09-18T09:27:49;10.75;;;9.23;;
8279;SDS011;8335;42.646;23.380;2023-09-18T09:30:19;10.43;;;8.63;;
8279;SDS011;8335;42.646;23.380;2023-09-18T09:32:47;11.98;;;8.60;;
8279;SDS011;8335;42.646;23.380;2023-09-18T09:35:20;11.75;;;9.05;;
8279;SDS011;8335;42.646;23.380;2023-09-18T09:37:49;12.90;;;8.00;;
8279;SDS011;8335;42.646;23.380;2023-09-18T09:40:17;12.50;;;7.35;;
8279;SDS011;8335;42.646;23.380;2023-09-18T09:42:46;8.60;;;7.03;;
8279;SDS011;8335;42.646;23.380;2023-09-18T09:45:14;9.30;;;7.45;;
8279;SDS011;8335;42.646;23.380;2023-09-18T09:47:41;11.27;;;8.05;;
8279;SDS011;8335;42.646;23.380;2023-09-18T09:50:09;10.98;;;7.55;;
8279;SDS011;8335;42.646;23.380;2023-09-18T09:52:40;8.50;;;7.60;;
8279;SDS011;8335;42.646;23.380;2023-09-18T09:55:20;8.88;;;7.97;;
8279;SDS011;8335;42.646;23.380;2023-09-18T09:57:49;9.05;;;7.95;;
8279;SDS011;8335;42.646;23.380;2023-09-18T10:00:18;9.07;;;7.78;;
8279;SDS011;8335;42.646;23.380;2023-09-18T10:02:53;8.77;;;7.53;;
8279;SDS011;8335;42.646;23.380;2023-09-18T10:05:23;8.82;;;7.57;;
8279;SDS011;8335;42.646;23.380;2023-09-18T10:07:53;10.35;;;8.98;;
8279;SDS011;8335;42.646;23.380;2023-09-18T10:10:26;12.63;;;7.22;;
8279;SDS011;8335;42.646;23.380;2023-09-18T10:12:57;8.95;;;6.45;;
8279;SDS011;8335;42.646;23.380;2023-09-18T10:15:29;7.22;;;5.95;;
8279;SDS011;8335;42.646;23.380;2023-09-18T10:18:05;7.95;;;6.82;;
8279;SDS011;8335;42.646;23.380;2023-09-18T10:20:39;8.35;;;6.03;;
8279;SDS011;8335;42.646;23.380;2023-09-18T10:23:13;6.97;;;5.55;;
8279;SDS011;8335;42.646;23.380;2023-09-18T10:25:52;7.93;;;5.82;;
8279;SDS011;8335;42.646;23.380;2023-09-18T10:28:23;8.32;;;6.28;;
8279;SDS011;8335;42.646;23.380;2023-09-18T10:30:52;7.40;;;6.25;;
8279;SDS011;8335;42.646;23.380;2023-09-18T10:33:21;8.25;;;6.85;;
8279;SDS011;8335;42.646;23.380;2023-09-18T10:35:48;9.82;;;7.18;;
8279;SDS011;8335;42.646;23.380;2023-09-18T10:38:15;7.95;;;6.55;;
8279;SDS011;8335;42.646;23.380;2023-09-18T10:40:44;10.15;;;7.05;;
8279;SDS011;8335;42.646;23.380;2023-09-18T10:43:15;8.93;;;5.93;;
8279;SDS011;8335;42.646;23.380;2023-09-18T10:45:43;7.07;;;5.57;;
8279;SDS011;8335;42.646;23.380;2023-09-18T10:48:10;6.75;;;5.50;;
8279;SDS011;8335;42.646;23.380;2023-09-18T10:50:38;7.57;;;5.45;;
8279;SDS011;8335;42.646;23.380;2023-09-18T10:53:06;8.70;;;5.65;;
8279;SDS011;8335;42.646;23.380;2023-09-18T10:55:33;7.75;;;5.45;;
8279;SDS011;8335;42.646;23.380;2023-09-18T10:58:01;6.88;;;5.78;;
8279;SDS011;8335;42.646;23.380;2023-09-18T11:00:31;7.20;;;5.65;;
8279;SDS011;8335;42.646;23.380;2023-09-18T11:03:12;7.95;;;5.80;;
8279;SDS011;8335;42.646;23.380;2023-09-18T11:05:40;6.93;;;5.93;;
8279;SDS011;8335;42.646;23.380;2023-09-18T11:08:25;7.28;;;5.60;;
8279;SDS011;8335;42.646;23.380;2023-09-18T11:10:59;9.15;;;5.15;;
8279;SDS011;8335;42.646;23.380;2023-09-18T11:13:35;11.68;;;6.20;;
8279;SDS011;8335;42.646;23.380;2023-09-18T11:16:13;23.10;;;13.25;;
8279;SDS011;8335;42.646;23.380;2023-09-18T11:18:42;15.77;;;9.45;;
8279;SDS011;8335;42.646;23.380;2023-09-18T11:21:12;7.50;;;5.32;;
8279;SDS011;8335;42.646;23.380;2023-09-18T11:23:43;7.60;;;5.68;;
8279;SDS011;8335;42.646;23.380;2023-09-18T11:26:10;13.10;;;5.88;;
8279;SDS011;8335;42.646;23.380;2023-09-18T11:28:37;7.63;;;6.22;;
8279;SDS011;8335;42.646;23.380;2023-09-18T11:31:04;7.80;;;5.65;;
8279;SDS011;8335;42.646;23.380;2023-09-18T11:33:35;8.00;;;5.35;;
8279;SDS011;8335;42.646;23.380;2023-09-18T11:36:03;7.13;;;5.53;;
8279;SDS011;8335;42.646;23.380;2023-09-18T11:38:32;8.30;;;5.55;;
8279;SDS011;8335;42.646;23.380;2023-09-18T11:41:01;7.88;;;5.50;;
8279;SDS011;8335;42.646;23.380;2023-09-18T11:43:46;7.20;;;5.90;;
8279;SDS011;8335;42.646;23.380;2023-09-18T11:46:17;7.65;;;5.70;;
8279;SDS011;8335;42.646;23.380;2023-09-18T11:48:48;10.55;;;5.30;;
8279;SDS011;8335;42.646;23.380;2023-09-18T11:51:22;7.60;;;5.95;;
8279;SDS011;8335;42.646;23.380;2023-09-18T11:53:50;6.47;;;5.13;;
8279;SDS011;8335;42.646;23.380;2023-09-18T11:56:20;10.40;;;6.00;;
8279;SDS011;8335;42.646;23.380;2023-09-18T11:58:47;13.15;;;7.88;;
8279;SDS011;8335;42.646;23.380;2023-09-18T12:01:14;6.88;;;6.18;;
8279;SDS011;8335;42.646;23.380;2023-09-18T12:03:41;7.72;;;5.93;;
8279;SDS011;8335;42.646;23.380;2023-09-18T12:06:10;8.35;;;6.65;;
8279;SDS011;8335;42.646;23.380;2023-09-18T12:08:38;5.50;;;5.00;;
8279;SDS011;8335;42.646;23.380;2023-09-18T12:11:06;10.98;;;8.05;;
8279;SDS011;8335;42.646;23.380;2023-09-18T12:13:33;9.38;;;5.90;;
8279;SDS011;8335;42.646;23.380;2023-09-18T12:16:00;8.13;;;5.47;;
8279;SDS011;8335;42.646;23.380;2023-09-18T12:18:30;11.88;;;7.35;;
8279;SDS011;8335;42.646;23.380;2023-09-18T12:20:59;8.77;;;5.82;;
8279;SDS011;8335;42.646;23.380;2023-09-18T12:23:30;10.45;;;6.35;;
8279;SDS011;8335;42.646;23.380;2023-09-18T12:26:03;6.90;;;5.80;;
8279;SDS011;8335;42.646;23.380;2023-09-18T12:28:32;11.57;;;6.28;;
8279;SDS011;8335;42.646;23.380;2023-09-18T12:31:00;13.27;;;6.30;;
8279;SDS011;8335;42.646;23.380;2023-09-18T12:33:33;15.23;;;7.13;;
8279;SDS011;8335;42.646;23.380;2023-09-18T12:36:01;9.65;;;6.00;;
8279;SDS011;8335;42.646;23.380;2023-09-18T12:38:31;8.90;;;5.50;;
8279;SDS011;8335;42.646;23.380;2023-09-18T12:40:58;9.60;;;5.85;;
8279;SDS011;8335;42.646;23.380;2023-09-18T12:43:32;7.15;;;5.55;;
8279;SDS011;8335;42.646;23.380;2023-09-18T12:46:01;8.15;;;5.85;;
8279;SDS011;8335;42.646;23.380;2023-09-18T12:48:30;8.60;;;6.03;;
8279;SDS011;8335;42.646;23.380;2023-09-18T12:51:01;8.23;;;6.10;;
8279;SDS011;8335;42.646;23.380;2023-09-18T12:53:31;11.07;;;5.80;;
8279;SDS011;8335;42.646;23.380;2023-09-18T12:56:05;10.15;;;6.40;;
8279;SDS011;8335;42.646;23.380;2023-09-18T12:58:34;10.93;;;6.78;;
8279;SDS011;8335;42.646;23.380;2023-09-18T13:01:03;8.32;;;6.15;;
8279;SDS011;8335;42.646;23.380;2023-09-18T13:03:34;6.97;;;5.50;;
8279;SDS011;8335;42.646;23.380;2023-09-18T13:06:08;7.38;;;6.03;;
8279;SDS011;8335;42.646;23.380;2023-09-18T13:08:37;10.23;;;6.00;;
8279;SDS011;8335;42.646;23.380;2023-09-18T13:11:04;8.32;;;5.13;;
8279;SDS011;8335;42.646;23.380;2023-09-18T13:13:32;8.23;;;5.13;;
8279;SDS011;8335;42.646;23.380;2023-09-18T13:15:59;8.82;;;5.22;;
8279;SDS011;8335;42.646;23.380;2023-09-18T13:18:29;6.43;;;5.30;;
8279;SDS011;8335;42.646;23.380;2023-09-18T13:20:56;9.23;;;5.43;;
8279;SDS011;8335;42.646;23.380;2023-09-18T13:23:27;7.15;;;5.93;;
8279;SDS011;8335;42.646;23.380;2023-09-18T13:25:59;7.43;;;5.63;;
8279;SDS011;8335;42.646;23.380;2023-09-18T13:28:28;6.82;;;5.30;;
8279;SDS011;8335;42.646;23.380;2023-09-18T13:30:56;7.38;;;5.47;;
8279;SDS011;8335;42.646;23.380;2023-09-18T13:33:24;6.18;;;5.57;;
8279;SDS011;8335;42.646;23.380;2023-09-18T13:35:52;12.93;;;5.45;;
8279;SDS011;8335;42.646;23.380;2023-09-18T13:38:21;8.70;;;5.38;;
8279;SDS011;8335;42.646;23.380;2023-09-18T13:40:48;12.38;;;5.65;;
8279;SDS011;8335;42.646;23.380;2023-09-18T13:43:16;6.53;;;5.13;;
8279;SDS011;8335;42.646;23.380;2023-09-18T13:45:44;7.75;;;5.55;;
8279;SDS011;8335;42.646;23.380;2023-09-18T13:48:11;8.13;;;5.28;;
8279;SDS011;8335;42.646;23.380;2023-09-18T13:50:37;8.30;;;5.90;;
8279;SDS011;8335;42.646;23.380;2023-09-18T13:53:04;10.30;;;5.18;;
8279;SDS011;8335;42.646;23.380;2023-09-18T13:55:32;6.93;;;5.25;;
8279;SDS011;8335;42.646;23.380;2023-09-18T13:57:59;9.38;;;5.70;;
8279;SDS011;8335;42.646;23.380;2023-09-18T14:00:29;8.73;;;5.30;;
8279;SDS011;8335;42.646;23.380;2023-09-18T14:02:56;6.03;;;5.20;;
8279;SDS011;8335;42.646;23.380;2023-09-18T14:05:23;8.70;;;6.22;;
8279;SDS011;8335;42.646;23.380;2023-09-18T14:07:51;9.20;;;5.25;;
8279;SDS011;8335;42.646;23.380;2023-09-18T14:10:22;8.05;;;5.35;;
8279;SDS011;8335;42.646;23.380;2023-09-18T14:12:49;7.82;;;5.20;;
8279;SDS011;8335;42.646;23.380;2023-09-18T14:15:16;7.13;;;5.57;;
8279;SDS011;8335;42.646;23.380;2023-09-18T14:17:45;10.25;;;5.45;;
8279;SDS011;8335;42.646;23.380;2023-09-18T14:20:12;9.98;;;5.10;;
8279;SDS011;8335;42.646;23.380;2023-09-18T14:22:40;8.35;;;5.68;;
8279;SDS011;8335;42.646;23.380;2023-09-18T14:25:07;9.48;;;5.60;;
8279;SDS011;8335;42.646;23.380;2023-09-18T14:27:34;6.65;;;4.82;;
8279;SDS011;8335;42.646;23.380;2023-09-18T14:30:01;6.43;;;5.28;;
8279;SDS011;8335;42.646;23.380;2023-09-18T14:32:31;8.45;;;5.22;;
8279;SDS011;8335;42.646;23.380;2023-09-18T14:34:59;7.22;;;5.03;;
8279;SDS011;8335;42.646;23.380;2023-09-18T14:37:27;8.65;;;5.15;;
8279;SDS011;8335;42.646;23.380;2023-09-18T14:39:54;12.18;;;7.40;;
8279;SDS011;8335;42.646;23.380;2023-09-18T14:42:21;15.82;;;8.40;;
8279;SDS011;8335;42.646;23.380;2023-09-18T14:44:48;13.60;;;6.05;;
8279;SDS011;8335;42.646;23.380;2023-09-18T14:47:15;29.98;;;16.75;;
8279;SDS011;8335;42.646;23.380;2023-09-18T14:49:42;18.85;;;10.93;;